sensor_id;sensor_type;location;lat;lon;timestamp;P1;durP1;ratioP1;P2;durP2;ratioP2
74245;SDS011;62601;51.044;13.788;2023-03-16T00:00:07;9.35;;;6.95;;
74245;SDS011;62601;51.044;13.788;2023-03-16T00:02:27;14.10;;;7.65;;
74245;SDS011;62601;51.044;13.788;2023-03-16T00:04:49;11.30;;;7.70;;
74245;SDS011;62601;51.044;13.788;2023-03-16T00:07:10;12.38;;;8.10;;
74245;SDS011;62601;51.044;13.788;2023-03-16T00:09:30;11.70;;;6.97;;
74245;SDS011;62601;51.044;13.788;2023-03-16T00:11:50;9.75;;;7.25;;
74245;SDS011;62601;51.044;13.788;2023-03-16T00:14:10;12.60;;;7.15;;
74245;SDS011;62601;51.044;13.788;2023-03-16T00:16:31;12.48;;;7.20;;
74245;SDS011;62601;51.044;13.788;2023-03-16T00:18:52;10.25;;;6.90;;
74245;SDS011;62601;51.044;13.788;2023-03-16T00:21:12;11.35;;;7.15;;
74245;SDS011;62601;51.044;13.788;2023-03-16T00:23:33;11.00;;;7.25;;
74245;SDS011;62601;51.044;13.788;2023-03-16T00:25:54;13.35;;;8.32;;
74245;SDS011;62601;51.044;13.788;2023-03-16T00:28:14;14.02;;;7.57;;
74245;SDS011;62601;51.044;13.788;2023-03-16T00:30:34;11.43;;;8.05;;
74245;SDS011;62601;51.044;13.788;2023-03-16T00:32:54;11.93;;;7.40;;
74245;SDS011;62601;51.044;13.788;2023-03-16T00:35:15;10.73;;;7.13;;
74245;SDS011;62601;51.044;13.788;2023-03-16T00:37:35;13.10;;;7.82;;
74245;SDS011;62601;51.044;13.788;2023-03-16T00:39:55;15.98;;;7.80;;
74245;SDS011;62601;51.044;13.788;2023-03-16T00:42:17;11.88;;;6.95;;
74245;SDS011;62601;51.044;13.788;2023-03-16T00:44:39;9.98;;;6.63;;
74245;SDS011;62601;51.044;13.788;2023-03-16T00:46:59;10.65;;;6.60;;
74245;SDS011;62601;51.044;13.788;2023-03-16T00:49:19;8.63;;;6.75;;
74245;SDS011;62601;51.044;13.788;2023-03-16T00:51:39;10.52;;;6.78;;
74245;SDS011;62601;51.044;13.788;2023-03-16T00:53:59;12.95;;;6.63;;
74245;SDS011;62601;51.044;13.788;2023-03-16T00:56:19;11.25;;;7.22;;
74245;SDS011;62601;51.044;13.788;2023-03-16T00:58:40;9.10;;;6.93;;
74245;SDS011;62601;51.044;13.788;2023-03-16T01:01:06;11.80;;;7.80;;
74245;SDS011;62601;51.044;13.788;2023-03-16T01:03:26;10.50;;;7.85;;
74245;SDS011;62601;51.044;13.788;2023-03-16T01:05:48;12.10;;;7.45;;
74245;SDS011;62601;51.044;13.788;2023-03-16T01:08:08;12.68;;;7.28;;
74245;SDS011;62601;51.044;13.788;2023-03-16T01:10:28;11.35;;;6.82;;
74245;SDS011;62601;51.044;13.788;2023-03-16T01:12:48;10.27;;;7.45;;
74245;SDS011;62601;51.044;13.788;2023-03-16T01:15:08;9.35;;;7.05;;
74245;SDS011;62601;51.044;13.788;2023-03-16T01:17:29;10.70;;;7.35;;
74245;SDS011;62601;51.044;13.788;2023-03-16T01:19:49;11.48;;;7.30;;
74245;SDS011;62601;51.044;13.788;2023-03-16T01:22:11;12.20;;;7.13;;
74245;SDS011;62601;51.044;13.788;2023-03-16T01:24:32;9.07;;;7.10;;
74245;SDS011;62601;51.044;13.788;2023-03-16T01:26:52;10.55;;;7.18;;
74245;SDS011;62601;51.044;13.788;2023-03-16T01:29:12;11.00;;;6.70;;
74245;SDS011;62601;51.044;13.788;2023-03-16T01:31:32;9.75;;;7.30;;
74245;SDS011;62601;51.044;13.788;2023-03-16T01:33:54;13.00;;;8.20;;
74245;SDS011;62601;51.044;13.788;2023-03-16T01:36:15;14.38;;;7.60;;
74245;SDS011;62601;51.044;13.788;2023-03-16T01:38:37;14.50;;;7.78;;
74245;SDS011;62601;51.044;13.788;2023-03-16T01:40:57;14.20;;;7.93;;
74245;SDS011;62601;51.044;13.788;2023-03-16T01:43:17;11.82;;;8.25;;
74245;SDS011;62601;51.044;13.788;2023-03-16T01:48:19;11.25;;;8.20;;
74245;SDS011;62601;51.044;13.788;2023-03-16T01:50:40;12.85;;;8.70;;
74245;SDS011;62601;51.044;13.788;2023-03-16T01:53:00;9.55;;;8.02;;
74245;SDS011;62601;51.044;13.788;2023-03-16T01:55:21;11.35;;;7.97;;
74245;SDS011;62601;51.044;13.788;2023-03-16T01:57:42;12.35;;;8.88;;
74245;SDS011;62601;51.044;13.788;2023-03-16T02:00:11;13.50;;;8.23;;
74245;SDS011;62601;51.044;13.788;2023-03-16T02:02:36;11.77;;;7.00;;
74245;SDS011;62601;51.044;13.788;2023-03-16T02:05:00;12.93;;;7.72;;
74245;SDS011;62601;51.044;13.788;2023-03-16T02:07:22;7.85;;;6.10;;
74245;SDS011;62601;51.044;13.788;2023-03-16T02:09:44;12.00;;;7.63;;
74245;SDS011;62601;51.044;13.788;2023-03-16T02:12:07;10.23;;;6.90;;
74245;SDS011;62601;51.044;13.788;2023-03-16T02:14:27;9.35;;;6.28;;
74245;SDS011;62601;51.044;13.788;2023-03-16T02:16:48;13.32;;;7.95;;
74245;SDS011;62601;51.044;13.788;2023-03-16T02:19:10;8.95;;;7.80;;
74245;SDS011;62601;51.044;13.788;2023-03-16T02:21:44;11.05;;;7.50;;
74245;SDS011;62601;51.044;13.788;2023-03-16T02:24:06;10.35;;;7.65;;
74245;SDS011;62601;51.044;13.788;2023-03-16T02:26:43;10.00;;;6.70;;
74245;SDS011;62601;51.044;13.788;2023-03-16T02:31:41;9.13;;;6.95;;
74245;SDS011;62601;51.044;13.788;2023-03-16T02:34:01;11.38;;;7.07;;
74245;SDS011;62601;51.044;13.788;2023-03-16T02:36:22;12.80;;;7.38;;
74245;SDS011;62601;51.044;13.788;2023-03-16T02:38:43;7.95;;;6.30;;
74245;SDS011;62601;51.044;13.788;2023-03-16T02:41:13;11.25;;;7.20;;
74245;SDS011;62601;51.044;13.788;2023-03-16T02:43:34;11.00;;;6.55;;
74245;SDS011;62601;51.044;13.788;2023-03-16T02:45:55;9.20;;;6.80;;
74245;SDS011;62601;51.044;13.788;2023-03-16T02:48:22;9.77;;;7.00;;
74245;SDS011;62601;51.044;13.788;2023-03-16T02:50:46;9.57;;;6.60;;
74245;SDS011;62601;51.044;13.788;2023-03-16T02:53:07;12.75;;;6.53;;
74245;SDS011;62601;51.044;13.788;2023-03-16T02:55:27;10.80;;;6.60;;
74245;SDS011;62601;51.044;13.788;2023-03-16T02:57:47;13.65;;;6.55;;
74245;SDS011;62601;51.044;13.788;2023-03-16T03:00:09;9.52;;;6.43;;
74245;SDS011;62601;51.044;13.788;2023-03-16T03:02:31;8.63;;;6.47;;
74245;SDS011;62601;51.044;13.788;2023-03-16T03:04:51;8.55;;;5.72;;
74245;SDS011;62601;51.044;13.788;2023-03-16T03:07:11;7.53;;;5.78;;
74245;SDS011;62601;51.044;13.788;2023-03-16T03:09:31;9.10;;;5.70;;
74245;SDS011;62601;51.044;13.788;2023-03-16T03:11:53;11.52;;;6.53;;
74245;SDS011;62601;51.044;13.788;2023-03-16T03:14:14;8.23;;;5.32;;
74245;SDS011;62601;51.044;13.788;2023-03-16T03:16:34;10.02;;;5.85;;
74245;SDS011;62601;51.044;13.788;2023-03-16T03:18:54;10.40;;;5.55;;
74245;SDS011;62601;51.044;13.788;2023-03-16T03:21:15;9.30;;;6.40;;
74245;SDS011;62601;51.044;13.788;2023-03-16T03:23:35;8.05;;;5.80;;
74245;SDS011;62601;51.044;13.788;2023-03-16T03:26:00;12.68;;;6.63;;
74245;SDS011;62601;51.044;13.788;2023-03-16T03:28:21;9.55;;;6.30;;
74245;SDS011;62601;51.044;13.788;2023-03-16T03:30:41;11.27;;;6.55;;
74245;SDS011;62601;51.044;13.788;2023-03-16T03:33:02;9.90;;;6.55;;
74245;SDS011;62601;51.044;13.788;2023-03-16T03:35:22;10.15;;;5.88;;
74245;SDS011;62601;51.044;13.788;2023-03-16T03:37:43;8.35;;;6.28;;
74245;SDS011;62601;51.044;13.788;2023-03-16T03:40:04;10.07;;;6.78;;
74245;SDS011;62601;51.044;13.788;2023-03-16T03:42:24;9.23;;;5.50;;
74245;SDS011;62601;51.044;13.788;2023-03-16T03:44:44;7.80;;;6.10;;
74245;SDS011;62601;51.044;13.788;2023-03-16T03:47:05;9.93;;;6.65;;
74245;SDS011;62601;51.044;13.788;2023-03-16T03:49:27;8.00;;;6.25;;
74245;SDS011;62601;51.044;13.788;2023-03-16T03:51:47;8.50;;;5.15;;
74245;SDS011;62601;51.044;13.788;2023-03-16T03:54:07;8.15;;;6.18;;
74245;SDS011;62601;51.044;13.788;2023-03-16T03:56:27;7.78;;;5.78;;
74245;SDS011;62601;51.044;13.788;2023-03-16T03:58:49;12.07;;;5.97;;
74245;SDS011;62601;51.044;13.788;2023-03-16T04:01:09;9.90;;;6.05;;
74245;SDS011;62601;51.044;13.788;2023-03-16T04:03:30;6.43;;;5.45;;
74245;SDS011;62601;51.044;13.788;2023-03-16T04:05:50;9.80;;;5.40;;
74245;SDS011;62601;51.044;13.788;2023-03-16T04:08:10;6.70;;;5.20;;
74245;SDS011;62601;51.044;13.788;2023-03-16T04:10:30;7.22;;;5.80;;
74245;SDS011;62601;51.044;13.788;2023-03-16T04:12:51;6.78;;;4.97;;
74245;SDS011;62601;51.044;13.788;2023-03-16T04:15:12;6.35;;;5.40;;
74245;SDS011;62601;51.044;13.788;2023-03-16T04:17:32;7.55;;;5.70;;
74245;SDS011;62601;51.044;13.788;2023-03-16T04:19:52;9.32;;;5.38;;
74245;SDS011;62601;51.044;13.788;2023-03-16T04:22:12;9.10;;;6.05;;
74245;SDS011;62601;51.044;13.788;2023-03-16T04:24:32;7.82;;;5.32;;
74245;SDS011;62601;51.044;13.788;2023-03-16T04:26:54;7.15;;;4.97;;
74245;SDS011;62601;51.044;13.788;2023-03-16T04:29:15;7.25;;;5.50;;
74245;SDS011;62601;51.044;13.788;2023-03-16T04:31:36;9.25;;;6.03;;
74245;SDS011;62601;51.044;13.788;2023-03-16T04:33:56;8.05;;;5.82;;
74245;SDS011;62601;51.044;13.788;2023-03-16T04:36:17;9.77;;;5.28;;
74245;SDS011;62601;51.044;13.788;2023-03-16T04:38:37;8.90;;;5.00;;
74245;SDS011;62601;51.044;13.788;2023-03-16T04:40:58;8.63;;;5.10;;
74245;SDS011;62601;51.044;13.788;2023-03-16T04:43:18;14.32;;;5.90;;
74245;SDS011;62601;51.044;13.788;2023-03-16T04:45:38;11.18;;;6.20;;
74245;SDS011;62601;51.044;13.788;2023-03-16T04:47:58;9.32;;;6.35;;
74245;SDS011;62601;51.044;13.788;2023-03-16T04:50:19;7.03;;;5.50;;
74245;SDS011;62601;51.044;13.788;2023-03-16T04:52:40;7.75;;;5.57;;
74245;SDS011;62601;51.044;13.788;2023-03-16T04:55:01;11.43;;;6.35;;
74245;SDS011;62601;51.044;13.788;2023-03-16T04:57:21;6.60;;;5.30;;
74245;SDS011;62601;51.044;13.788;2023-03-16T04:59:41;6.10;;;5.15;;
74245;SDS011;62601;51.044;13.788;2023-03-16T05:02:01;8.38;;;5.50;;
74245;SDS011;62601;51.044;13.788;2023-03-16T05:04:21;7.88;;;5.93;;
74245;SDS011;62601;51.044;13.788;2023-03-16T05:06:41;10.05;;;6.05;;
74245;SDS011;62601;51.044;13.788;2023-03-16T05:09:01;8.05;;;5.82;;
74245;SDS011;62601;51.044;13.788;2023-03-16T05:11:21;8.15;;;5.30;;
74245;SDS011;62601;51.044;13.788;2023-03-16T05:13:43;7.18;;;5.45;;
74245;SDS011;62601;51.044;13.788;2023-03-16T05:16:03;7.80;;;5.22;;
74245;SDS011;62601;51.044;13.788;2023-03-16T05:18:23;8.73;;;6.18;;
74245;SDS011;62601;51.044;13.788;2023-03-16T05:20:43;6.63;;;5.15;;
74245;SDS011;62601;51.044;13.788;2023-03-16T05:23:03;7.93;;;5.28;;
74245;SDS011;62601;51.044;13.788;2023-03-16T05:25:25;7.18;;;5.20;;
74245;SDS011;62601;51.044;13.788;2023-03-16T05:27:46;6.97;;;4.90;;
74245;SDS011;62601;51.044;13.788;2023-03-16T05:30:08;7.90;;;5.38;;
74245;SDS011;62601;51.044;13.788;2023-03-16T05:32:30;7.82;;;4.97;;
74245;SDS011;62601;51.044;13.788;2023-03-16T05:34:50;6.93;;;5.50;;
74245;SDS011;62601;51.044;13.788;2023-03-16T05:37:10;10.05;;;5.75;;
74245;SDS011;62601;51.044;13.788;2023-03-16T05:39:32;10.50;;;6.47;;
74245;SDS011;62601;51.044;13.788;2023-03-16T05:41:53;7.03;;;6.05;;
74245;SDS011;62601;51.044;13.788;2023-03-16T05:44:14;13.25;;;7.10;;
74245;SDS011;62601;51.044;13.788;2023-03-16T05:46:34;10.77;;;6.50;;
74245;SDS011;62601;51.044;13.788;2023-03-16T05:48:55;8.15;;;5.43;;
74245;SDS011;62601;51.044;13.788;2023-03-16T05:51:16;7.90;;;5.75;;
74245;SDS011;62601;51.044;13.788;2023-03-16T05:53:36;7.80;;;5.30;;
74245;SDS011;62601;51.044;13.788;2023-03-16T05:55:56;11.98;;;6.22;;
74245;SDS011;62601;51.044;13.788;2023-03-16T05:58:16;8.45;;;5.53;;
74245;SDS011;62601;51.044;13.788;2023-03-16T06:00:36;7.72;;;5.30;;
74245;SDS011;62601;51.044;13.788;2023-03-16T06:02:58;10.88;;;6.35;;
74245;SDS011;62601;51.044;13.788;2023-03-16T06:05:18;8.00;;;5.20;;
74245;SDS011;62601;51.044;13.788;2023-03-16T06:07:40;9.00;;;6.43;;
74245;SDS011;62601;51.044;13.788;2023-03-16T06:10:00;7.70;;;5.03;;
74245;SDS011;62601;51.044;13.788;2023-03-16T06:12:20;9.88;;;5.85;;
74245;SDS011;62601;51.044;13.788;2023-03-16T06:14:40;7.97;;;5.43;;
74245;SDS011;62601;51.044;13.788;2023-03-16T06:17:01;6.82;;;5.22;;
74245;SDS011;62601;51.044;13.788;2023-03-16T06:19:21;6.30;;;5.05;;
74245;SDS011;62601;51.044;13.788;2023-03-16T06:21:42;5.95;;;4.63;;
74245;SDS011;62601;51.044;13.788;2023-03-16T06:24:03;11.23;;;5.47;;
74245;SDS011;62601;51.044;13.788;2023-03-16T06:26:23;6.82;;;5.43;;
74245;SDS011;62601;51.044;13.788;2023-03-16T06:28:43;8.00;;;5.75;;
74245;SDS011;62601;51.044;13.788;2023-03-16T06:31:03;9.50;;;5.57;;
74245;SDS011;62601;51.044;13.788;2023-03-16T06:33:25;8.18;;;6.13;;
74245;SDS011;62601;51.044;13.788;2023-03-16T06:35:45;7.47;;;5.07;;
74245;SDS011;62601;51.044;13.788;2023-03-16T06:38:06;9.65;;;5.68;;
74245;SDS011;62601;51.044;13.788;2023-03-16T06:40:26;8.65;;;5.97;;
74245;SDS011;62601;51.044;13.788;2023-03-16T06:42:46;10.52;;;5.75;;
74245;SDS011;62601;51.044;13.788;2023-03-16T06:45:07;7.00;;;5.10;;
74245;SDS011;62601;51.044;13.788;2023-03-16T06:47:27;6.55;;;4.68;;
74245;SDS011;62601;51.044;13.788;2023-03-16T06:49:47;9.00;;;6.13;;
74245;SDS011;62601;51.044;13.788;2023-03-16T06:52:07;6.60;;;5.03;;
74245;SDS011;62601;51.044;13.788;2023-03-16T06:54:28;6.88;;;4.70;;
74245;SDS011;62601;51.044;13.788;2023-03-16T06:56:48;9.57;;;5.10;;
74245;SDS011;62601;51.044;13.788;2023-03-16T06:59:08;10.60;;;7.28;;
74245;SDS011;62601;51.044;13.788;2023-03-16T07:01:28;8.60;;;5.38;;
74245;SDS011;62601;51.044;13.788;2023-03-16T07:03:48;10.65;;;6.78;;
74245;SDS011;62601;51.044;13.788;2023-03-16T07:06:10;11.32;;;6.00;;
74245;SDS011;62601;51.044;13.788;2023-03-16T07:08:30;7.90;;;5.10;;
74245;SDS011;62601;51.044;13.788;2023-03-16T07:10:50;7.78;;;5.13;;
74245;SDS011;62601;51.044;13.788;2023-03-16T07:13:10;8.57;;;5.70;;
74245;SDS011;62601;51.044;13.788;2023-03-16T07:15:30;8.90;;;5.43;;
74245;SDS011;62601;51.044;13.788;2023-03-16T07:17:51;8.95;;;4.60;;
74245;SDS011;62601;51.044;13.788;2023-03-16T07:20:12;8.25;;;4.80;;
74245;SDS011;62601;51.044;13.788;2023-03-16T07:22:32;6.28;;;4.63;;
74245;SDS011;62601;51.044;13.788;2023-03-16T07:24:52;10.35;;;5.40;;
74245;SDS011;62601;51.044;13.788;2023-03-16T07:27:12;7.45;;;4.88;;
74245;SDS011;62601;51.044;13.788;2023-03-16T07:29:32;8.20;;;5.47;;
74245;SDS011;62601;51.044;13.788;2023-03-16T07:31:53;7.38;;;5.30;;
74245;SDS011;62601;51.044;13.788;2023-03-16T07:34:13;8.95;;;4.90;;
74245;SDS011;62601;51.044;13.788;2023-03-16T07:36:33;7.35;;;5.38;;
74245;SDS011;62601;51.044;13.788;2023-03-16T07:38:54;8.65;;;4.90;;
74245;SDS011;62601;51.044;13.788;2023-03-16T07:41:16;7.43;;;4.50;;
74245;SDS011;62601;51.044;13.788;2023-03-16T07:43:36;6.57;;;4.80;;
74245;SDS011;62601;51.044;13.788;2023-03-16T07:45:56;6.45;;;4.80;;
74245;SDS011;62601;51.044;13.788;2023-03-16T07:48:16;6.60;;;4.55;;
74245;SDS011;62601;51.044;13.788;2023-03-16T07:50:37;6.72;;;4.53;;
74245;SDS011;62601;51.044;13.788;2023-03-16T07:52:58;8.60;;;4.63;;
74245;SDS011;62601;51.044;13.788;2023-03-16T07:55:18;9.88;;;5.25;;
74245;SDS011;62601;51.044;13.788;2023-03-16T07:57:40;8.60;;;5.50;;
74245;SDS011;62601;51.044;13.788;2023-03-16T08:00:02;7.40;;;5.28;;
74245;SDS011;62601;51.044;13.788;2023-03-16T08:02:22;7.25;;;5.28;;
74245;SDS011;62601;51.044;13.788;2023-03-16T08:04:44;6.18;;;4.85;;
74245;SDS011;62601;51.044;13.788;2023-03-16T08:07:07;7.85;;;4.50;;
74245;SDS011;62601;51.044;13.788;2023-03-16T08:09:27;6.82;;;5.05;;
74245;SDS011;62601;51.044;13.788;2023-03-16T08:11:48;8.45;;;5.38;;
74245;SDS011;62601;51.044;13.788;2023-03-16T08:14:09;7.07;;;5.20;;
74245;SDS011;62601;51.044;13.788;2023-03-16T08:16:29;8.13;;;5.60;;
74245;SDS011;62601;51.044;13.788;2023-03-16T08:18:49;8.98;;;5.43;;
74245;SDS011;62601;51.044;13.788;2023-03-16T08:21:09;9.02;;;5.35;;
74245;SDS011;62601;51.044;13.788;2023-03-16T08:23:29;10.00;;;5.55;;
74245;SDS011;62601;51.044;13.788;2023-03-16T08:25:53;5.60;;;4.47;;
74245;SDS011;62601;51.044;13.788;2023-03-16T08:28:13;9.95;;;4.97;;
74245;SDS011;62601;51.044;13.788;2023-03-16T08:30:34;7.13;;;4.63;;
74245;SDS011;62601;51.044;13.788;2023-03-16T08:32:55;8.20;;;4.20;;
74245;SDS011;62601;51.044;13.788;2023-03-16T08:35:15;5.22;;;4.00;;
74245;SDS011;62601;51.044;13.788;2023-03-16T08:37:35;6.65;;;4.07;;
74245;SDS011;62601;51.044;13.788;2023-03-16T08:39:55;7.15;;;4.45;;
74245;SDS011;62601;51.044;13.788;2023-03-16T08:42:16;5.32;;;3.75;;
74245;SDS011;62601;51.044;13.788;2023-03-16T08:44:37;6.13;;;3.90;;
74245;SDS011;62601;51.044;13.788;2023-03-16T08:46:57;8.77;;;6.00;;
74245;SDS011;62601;51.044;13.788;2023-03-16T08:49:19;14.63;;;7.13;;
74245;SDS011;62601;51.044;13.788;2023-03-16T08:51:39;14.30;;;7.35;;
74245;SDS011;62601;51.044;13.788;2023-03-16T08:53:59;10.70;;;4.75;;
74245;SDS011;62601;51.044;13.788;2023-03-16T08:56:19;5.95;;;3.47;;
74245;SDS011;62601;51.044;13.788;2023-03-16T08:58:41;6.22;;;3.25;;
74245;SDS011;62601;51.044;13.788;2023-03-16T09:01:03;7.55;;;3.35;;
74245;SDS011;62601;51.044;13.788;2023-03-16T09:03:23;9.18;;;3.75;;
74245;SDS011;62601;51.044;13.788;2023-03-16T09:05:43;4.72;;;3.15;;
74245;SDS011;62601;51.044;13.788;2023-03-16T09:08:04;6.85;;;3.13;;
74245;SDS011;62601;51.044;13.788;2023-03-16T09:10:24;8.10;;;3.42;;
74245;SDS011;62601;51.044;13.788;2023-03-16T09:12:44;6.72;;;3.30;;
74245;SDS011;62601;51.044;13.788;2023-03-16T09:15:04;5.70;;;2.70;;
74245;SDS011;62601;51.044;13.788;2023-03-16T09:17:24;4.18;;;3.00;;
74245;SDS011;62601;51.044;13.788;2023-03-16T09:19:45;4.78;;;2.72;;
74245;SDS011;62601;51.044;13.788;2023-03-16T09:22:05;7.60;;;3.45;;
74245;SDS011;62601;51.044;13.788;2023-03-16T09:24:26;7.15;;;2.30;;
74245;SDS011;62601;51.044;13.788;2023-03-16T09:26:46;3.40;;;1.80;;
74245;SDS011;62601;51.044;13.788;2023-03-16T09:29:06;5.97;;;2.58;;
74245;SDS011;62601;51.044;13.788;2023-03-16T09:31:27;5.82;;;2.40;;
74245;SDS011;62601;51.044;13.788;2023-03-16T09:33:52;5.68;;;2.55;;
74245;SDS011;62601;51.044;13.788;2023-03-16T09:36:12;8.48;;;2.80;;
74245;SDS011;62601;51.044;13.788;2023-03-16T09:38:32;6.22;;;2.40;;
74245;SDS011;62601;51.044;13.788;2023-03-16T09:40:58;6.93;;;2.25;;
74245;SDS011;62601;51.044;13.788;2023-03-16T09:45:43;4.25;;;2.10;;
74245;SDS011;62601;51.044;13.788;2023-03-16T09:48:07;5.95;;;2.40;;
74245;SDS011;62601;51.044;13.788;2023-03-16T09:50:33;10.57;;;3.90;;
74245;SDS011;62601;51.044;13.788;2023-03-16T09:52:56;4.95;;;2.28;;
74245;SDS011;62601;51.044;13.788;2023-03-16T09:55:35;4.40;;;1.60;;
74245;SDS011;62601;51.044;13.788;2023-03-16T09:57:58;3.42;;;2.60;;
74245;SDS011;62601;51.044;13.788;2023-03-16T10:00:23;3.30;;;2.33;;
74245;SDS011;62601;51.044;13.788;2023-03-16T10:02:46;4.88;;;1.85;;
74245;SDS011;62601;51.044;13.788;2023-03-16T10:05:12;4.03;;;1.80;;
74245;SDS011;62601;51.044;13.788;2023-03-16T10:07:36;5.47;;;1.98;;
74245;SDS011;62601;51.044;13.788;2023-03-16T10:12:31;4.65;;;1.75;;
74245;SDS011;62601;51.044;13.788;2023-03-16T10:17:25;9.02;;;2.83;;
74245;SDS011;62601;51.044;13.788;2023-03-16T10:19:48;4.20;;;2.53;;
74245;SDS011;62601;51.044;13.788;2023-03-16T10:22:17;5.53;;;2.70;;
74245;SDS011;62601;51.044;13.788;2023-03-16T10:24:51;2.47;;;1.90;;
74245;SDS011;62601;51.044;13.788;2023-03-16T10:27:24;5.22;;;2.20;;
74245;SDS011;62601;51.044;13.788;2023-03-16T10:29:47;3.20;;;1.70;;
74245;SDS011;62601;51.044;13.788;2023-03-16T10:32:11;7.93;;;2.30;;
74245;SDS011;62601;51.044;13.788;2023-03-16T10:34:31;5.95;;;2.05;;
74245;SDS011;62601;51.044;13.788;2023-03-16T10:36:51;2.40;;;1.90;;
74245;SDS011;62601;51.044;13.788;2023-03-16T10:39:13;2.58;;;1.20;;
74245;SDS011;62601;51.044;13.788;2023-03-16T10:41:35;4.03;;;2.20;;
74245;SDS011;62601;51.044;13.788;2023-03-16T10:44:14;5.75;;;2.10;;
74245;SDS011;62601;51.044;13.788;2023-03-16T10:46:48;6.05;;;1.52;;
74245;SDS011;62601;51.044;13.788;2023-03-16T10:49:19;3.83;;;1.52;;
74245;SDS011;62601;51.044;13.788;2023-03-16T10:51:39;2.97;;;1.80;;
74245;SDS011;62601;51.044;13.788;2023-03-16T10:54:06;2.88;;;1.60;;
74245;SDS011;62601;51.044;13.788;2023-03-16T10:56:30;5.18;;;1.67;;
74245;SDS011;62601;51.044;13.788;2023-03-16T10:58:51;5.78;;;2.30;;
74245;SDS011;62601;51.044;13.788;2023-03-16T11:01:14;4.00;;;1.70;;
74245;SDS011;62601;51.044;13.788;2023-03-16T11:03:39;2.93;;;1.70;;
74245;SDS011;62601;51.044;13.788;2023-03-16T11:06:00;4.03;;;1.93;;
74245;SDS011;62601;51.044;13.788;2023-03-16T11:08:22;2.13;;;1.40;;
74245;SDS011;62601;51.044;13.788;2023-03-16T11:10:45;2.70;;;1.43;;
74245;SDS011;62601;51.044;13.788;2023-03-16T11:13:18;3.00;;;1.70;;
74245;SDS011;62601;51.044;13.788;2023-03-16T11:15:49;2.80;;;2.13;;
74245;SDS011;62601;51.044;13.788;2023-03-16T11:18:23;3.97;;;1.27;;
74245;SDS011;62601;51.044;13.788;2023-03-16T11:20:45;3.43;;;1.30;;
74245;SDS011;62601;51.044;13.788;2023-03-16T11:23:05;4.63;;;1.70;;
74245;SDS011;62601;51.044;13.788;2023-03-16T11:25:38;3.50;;;1.93;;
74245;SDS011;62601;51.044;13.788;2023-03-16T11:28:05;3.97;;;1.70;;
74245;SDS011;62601;51.044;13.788;2023-03-16T11:30:33;6.10;;;2.30;;
74245;SDS011;62601;51.044;13.788;2023-03-16T11:32:55;4.30;;;1.70;;
74245;SDS011;62601;51.044;13.788;2023-03-16T11:40:16;2.30;;;1.27;;
74245;SDS011;62601;51.044;13.788;2023-03-16T11:53:06;7.57;;;1.83;;
74245;SDS011;62601;51.044;13.788;2023-03-16T11:55:49;4.53;;;1.65;;
74245;SDS011;62601;51.044;13.788;2023-03-16T11:58:28;3.55;;;1.63;;
74245;SDS011;62601;51.044;13.788;2023-03-16T12:01:09;2.78;;;1.30;;
74245;SDS011;62601;51.044;13.788;2023-03-16T12:08:47;3.25;;;1.20;;
74245;SDS011;62601;51.044;13.788;2023-03-16T12:11:13;4.03;;;1.52;;
74245;SDS011;62601;51.044;13.788;2023-03-16T12:13:39;1.67;;;1.20;;
74245;SDS011;62601;51.044;13.788;2023-03-16T12:16:24;4.65;;;1.40;;
74245;SDS011;62601;51.044;13.788;2023-03-16T12:18:49;5.10;;;1.60;;
74245;SDS011;62601;51.044;13.788;2023-03-16T12:21:13;2.90;;;1.20;;
74245;SDS011;62601;51.044;13.788;2023-03-16T12:23:35;2.45;;;1.35;;
74245;SDS011;62601;51.044;13.788;2023-03-16T12:25:57;7.82;;;2.92;;
74245;SDS011;62601;51.044;13.788;2023-03-16T12:28:21;5.80;;;1.33;;
74245;SDS011;62601;51.044;13.788;2023-03-16T12:33:03;4.65;;;1.70;;
74245;SDS011;62601;51.044;13.788;2023-03-16T12:45:42;2.90;;;1.50;;
74245;SDS011;62601;51.044;13.788;2023-03-16T12:50:27;2.10;;;1.60;;
74245;SDS011;62601;51.044;13.788;2023-03-16T12:52:50;6.37;;;2.03;;
74245;SDS011;62601;51.044;13.788;2023-03-16T12:55:12;3.97;;;2.20;;
74245;SDS011;62601;51.044;13.788;2023-03-16T12:57:32;3.40;;;2.60;;
74245;SDS011;62601;51.044;13.788;2023-03-16T12:59:54;3.23;;;2.27;;
74245;SDS011;62601;51.044;13.788;2023-03-16T13:02:33;4.57;;;2.17;;
74245;SDS011;62601;51.044;13.788;2023-03-16T13:04:55;3.87;;;2.00;;
74245;SDS011;62601;51.044;13.788;2023-03-16T13:07:23;3.00;;;2.37;;
74245;SDS011;62601;51.044;13.788;2023-03-16T13:09:46;3.20;;;2.30;;
74245;SDS011;62601;51.044;13.788;2023-03-16T13:12:07;2.87;;;2.10;;
74245;SDS011;62601;51.044;13.788;2023-03-16T13:14:37;3.33;;;2.00;;
74245;SDS011;62601;51.044;13.788;2023-03-16T13:19:36;3.00;;;2.30;;
74245;SDS011;62601;51.044;13.788;2023-03-16T13:24:36;4.20;;;2.30;;
74245;SDS011;62601;51.044;13.788;2023-03-16T13:26:58;4.93;;;2.70;;
74245;SDS011;62601;51.044;13.788;2023-03-16T13:29:24;2.40;;;2.10;;
74245;SDS011;62601;51.044;13.788;2023-03-16T13:31:46;3.43;;;2.40;;
74245;SDS011;62601;51.044;13.788;2023-03-16T13:34:06;3.90;;;2.70;;
74245;SDS011;62601;51.044;13.788;2023-03-16T13:36:30;6.10;;;2.63;;
74245;SDS011;62601;51.044;13.788;2023-03-16T13:39:33;5.50;;;2.00;;
74245;SDS011;62601;51.044;13.788;2023-03-16T13:41:34;4.57;;;2.33;;
74245;SDS011;62601;51.044;13.788;2023-03-16T13:43:54;4.90;;;2.53;;
74245;SDS011;62601;51.044;13.788;2023-03-16T13:46:15;5.60;;;3.03;;
74245;SDS011;62601;51.044;13.788;2023-03-16T13:48:36;3.73;;;2.67;;
74245;SDS011;62601;51.044;13.788;2023-03-16T13:50:56;3.90;;;2.80;;
74245;SDS011;62601;51.044;13.788;2023-03-16T13:53:27;5.33;;;2.40;;
74245;SDS011;62601;51.044;13.788;2023-03-16T13:55:47;3.30;;;2.40;;
74245;SDS011;62601;51.044;13.788;2023-03-16T13:58:18;2.83;;;2.30;;
74245;SDS011;62601;51.044;13.788;2023-03-16T14:00:42;3.20;;;2.53;;
74245;SDS011;62601;51.044;13.788;2023-03-16T14:03:17;3.10;;;2.20;;
74245;SDS011;62601;51.044;13.788;2023-03-16T14:05:37;3.30;;;2.37;;
74245;SDS011;62601;51.044;13.788;2023-03-16T14:07:57;3.00;;;2.50;;
74245;SDS011;62601;51.044;13.788;2023-03-16T14:10:18;3.67;;;2.37;;
74245;SDS011;62601;51.044;13.788;2023-03-16T14:12:39;3.17;;;2.67;;
74245;SDS011;62601;51.044;13.788;2023-03-16T14:15:09;4.77;;;3.10;;
74245;SDS011;62601;51.044;13.788;2023-03-16T14:17:31;3.17;;;2.33;;
74245;SDS011;62601;51.044;13.788;2023-03-16T14:19:55;3.67;;;2.40;;
74245;SDS011;62601;51.044;13.788;2023-03-16T14:22:18;6.33;;;2.80;;
74245;SDS011;62601;51.044;13.788;2023-03-16T14:24:38;4.83;;;2.40;;
74245;SDS011;62601;51.044;13.788;2023-03-16T14:29:38;5.37;;;2.87;;
74245;SDS011;62601;51.044;13.788;2023-03-16T14:32:00;5.50;;;3.27;;
74245;SDS011;62601;51.044;13.788;2023-03-16T14:34:36;4.37;;;2.57;;
74245;SDS011;62601;51.044;13.788;2023-03-16T14:37:03;4.83;;;2.47;;
74245;SDS011;62601;51.044;13.788;2023-03-16T14:39:25;4.73;;;2.50;;
74245;SDS011;62601;51.044;13.788;2023-03-16T14:41:50;4.97;;;2.60;;
74245;SDS011;62601;51.044;13.788;2023-03-16T14:44:16;4.10;;;2.60;;
74245;SDS011;62601;51.044;13.788;2023-03-16T14:46:37;6.10;;;2.70;;
74245;SDS011;62601;51.044;13.788;2023-03-16T14:48:59;4.23;;;2.30;;
74245;SDS011;62601;51.044;13.788;2023-03-16T14:51:19;3.17;;;2.30;;
74245;SDS011;62601;51.044;13.788;2023-03-16T14:53:40;5.10;;;2.70;;
74245;SDS011;62601;51.044;13.788;2023-03-16T14:56:00;4.00;;;2.90;;